sensor_id;sensor_type;location;lat;lon;timestamp;P1;durP1;ratioP1;P2;durP2;ratioP2
18574;SDS011;9417;16.484;102.872;2023-09-12T00:00:15;8.68;;;5.15;;
18574;SDS011;9417;16.484;102.872;2023-09-12T00:02:22;7.88;;;4.55;;
18574;SDS011;9417;16.484;102.872;2023-09-12T00:04:30;9.43;;;5.25;;
18574;SDS011;9417;16.484;102.872;2023-09-12T00:06:37;10.15;;;5.07;;
18574;SDS011;9417;16.484;102.872;2023-09-12T00:08:44;8.52;;;5.22;;
18574;SDS011;9417;16.484;102.872;2023-09-12T00:11:00;18.98;;;16.35;;
18574;SDS011;9417;16.484;102.872;2023-09-12T00:13:10;16.95;;;15.23;;
18574;SDS011;9417;16.484;102.872;2023-09-12T00:15:17;17.60;;;15.65;;
18574;SDS011;9417;16.484;102.872;2023-09-12T00:17:23;18.05;;;16.23;;
18574;SDS011;9417;16.484;102.872;2023-09-12T00:19:31;8.60;;;4.90;;
18574;SDS011;9417;16.484;102.872;2023-09-12T00:21:38;19.73;;;16.23;;
18574;SDS011;9417;16.484;102.872;2023-09-12T00:23:46;16.50;;;14.70;;
18574;SDS011;9417;16.484;102.872;2023-09-12T00:25:53;18.30;;;15.45;;
18574;SDS011;9417;16.484;102.872;2023-09-12T00:28:00;16.38;;;14.40;;
18574;SDS011;9417;16.484;102.872;2023-09-12T00:30:09;16.35;;;13.55;;
18574;SDS011;9417;16.484;102.872;2023-09-12T00:32:17;10.35;;;6.53;;
18574;SDS011;9417;16.484;102.872;2023-09-12T00:34:24;9.13;;;4.43;;
18574;SDS011;9417;16.484;102.872;2023-09-12T00:36:31;9.07;;;4.05;;
18574;SDS011;9417;16.484;102.872;2023-09-12T00:38:40;6.90;;;3.97;;
18574;SDS011;9417;16.484;102.872;2023-09-12T00:40:47;6.70;;;3.92;;
18574;SDS011;9417;16.484;102.872;2023-09-12T00:42:54;11.07;;;8.35;;
18574;SDS011;9417;16.484;102.872;2023-09-12T00:45:00;11.57;;;8.25;;
18574;SDS011;9417;16.484;102.872;2023-09-12T00:47:09;10.48;;;6.57;;
18574;SDS011;9417;16.484;102.872;2023-09-12T00:49:17;8.75;;;7.93;;
18574;SDS011;9417;16.484;102.872;2023-09-12T00:51:26;7.57;;;3.72;;
18574;SDS011;9417;16.484;102.872;2023-09-12T00:53:35;6.95;;;3.20;;
18574;SDS011;9417;16.484;102.872;2023-09-12T00:55:42;11.07;;;9.52;;
18574;SDS011;9417;16.484;102.872;2023-09-12T00:57:53;6.88;;;3.17;;
18574;SDS011;9417;16.484;102.872;2023-09-12T01:00:01;7.68;;;3.67;;
18574;SDS011;9417;16.484;102.872;2023-09-12T01:02:16;7.40;;;3.70;;
18574;SDS011;9417;16.484;102.872;2023-09-12T01:04:23;7.47;;;3.58;;
18574;SDS011;9417;16.484;102.872;2023-09-12T01:06:37;8.63;;;4.00;;
18574;SDS011;9417;16.484;102.872;2023-09-12T01:08:44;5.20;;;3.10;;
18574;SDS011;9417;16.484;102.872;2023-09-12T01:10:52;6.45;;;3.72;;
18574;SDS011;9417;16.484;102.872;2023-09-12T01:13:01;6.30;;;3.35;;
18574;SDS011;9417;16.484;102.872;2023-09-12T01:15:08;5.68;;;3.25;;
18574;SDS011;9417;16.484;102.872;2023-09-12T01:17:19;5.78;;;3.38;;
18574;SDS011;9417;16.484;102.872;2023-09-12T01:19:26;10.35;;;3.33;;
18574;SDS011;9417;16.484;102.872;2023-09-12T01:24:17;5.35;;;3.15;;
18574;SDS011;9417;16.484;102.872;2023-09-12T01:26:41;4.05;;;3.20;;
18574;SDS011;9417;16.484;102.872;2023-09-12T01:28:56;5.40;;;2.85;;
18574;SDS011;9417;16.484;102.872;2023-09-12T01:31:05;6.60;;;2.88;;
18574;SDS011;9417;16.484;102.872;2023-09-12T01:33:12;6.38;;;3.13;;
18574;SDS011;9417;16.484;102.872;2023-09-12T01:35:18;4.60;;;3.22;;
18574;SDS011;9417;16.484;102.872;2023-09-12T01:37:25;7.93;;;3.20;;
18574;SDS011;9417;16.484;102.872;2023-09-12T01:39:34;6.55;;;3.17;;
18574;SDS011;9417;16.484;102.872;2023-09-12T01:41:41;6.15;;;3.42;;
18574;SDS011;9417;16.484;102.872;2023-09-12T01:43:51;7.03;;;3.10;;
18574;SDS011;9417;16.484;102.872;2023-09-12T01:46:01;7.57;;;3.35;;
18574;SDS011;9417;16.484;102.872;2023-09-12T01:48:08;5.95;;;2.90;;
18574;SDS011;9417;16.484;102.872;2023-09-12T01:50:17;4.97;;;2.88;;
18574;SDS011;9417;16.484;102.872;2023-09-12T01:52:26;4.88;;;2.83;;
18574;SDS011;9417;16.484;102.872;2023-09-12T01:54:34;5.00;;;3.30;;
18574;SDS011;9417;16.484;102.872;2023-09-12T01:56:42;5.32;;;2.55;;
18574;SDS011;9417;16.484;102.872;2023-09-12T01:58:50;6.50;;;2.97;;
18574;SDS011;9417;16.484;102.872;2023-09-12T02:00:58;4.72;;;2.95;;
18574;SDS011;9417;16.484;102.872;2023-09-12T02:03:06;6.53;;;2.95;;
18574;SDS011;9417;16.484;102.872;2023-09-12T02:05:14;4.43;;;2.58;;
18574;SDS011;9417;16.484;102.872;2023-09-12T02:07:23;4.75;;;2.50;;
18574;SDS011;9417;16.484;102.872;2023-09-12T02:09:32;4.60;;;2.78;;
18574;SDS011;9417;16.484;102.872;2023-09-12T02:11:39;4.65;;;2.80;;
18574;SDS011;9417;16.484;102.872;2023-09-12T02:13:47;7.00;;;2.30;;
18574;SDS011;9417;16.484;102.872;2023-09-12T02:15:58;5.35;;;2.58;;
18574;SDS011;9417;16.484;102.872;2023-09-12T02:18:08;4.53;;;2.30;;
18574;SDS011;9417;16.484;102.872;2023-09-12T02:20:15;3.70;;;2.33;;
18574;SDS011;9417;16.484;102.872;2023-09-12T02:22:21;5.15;;;2.30;;
18574;SDS011;9417;16.484;102.872;2023-09-12T02:24:29;4.28;;;2.03;;
18574;SDS011;9417;16.484;102.872;2023-09-12T02:26:36;3.83;;;2.38;;
18574;SDS011;9417;16.484;102.872;2023-09-12T02:28:44;4.85;;;2.47;;
18574;SDS011;9417;16.484;102.872;2023-09-12T02:30:51;5.75;;;3.13;;
18574;SDS011;9417;16.484;102.872;2023-09-12T02:32:59;4.47;;;2.85;;
18574;SDS011;9417;16.484;102.872;2023-09-12T02:35:08;4.13;;;3.20;;
18574;SDS011;9417;16.484;102.872;2023-09-12T02:37:15;5.15;;;3.45;;
18574;SDS011;9417;16.484;102.872;2023-09-12T02:39:21;6.93;;;3.67;;
18574;SDS011;9417;16.484;102.872;2023-09-12T02:41:29;4.32;;;3.13;;
18574;SDS011;9417;16.484;102.872;2023-09-12T02:43:36;6.80;;;2.88;;
18574;SDS011;9417;16.484;102.872;2023-09-12T02:45:42;7.40;;;3.92;;
18574;SDS011;9417;16.484;102.872;2023-09-12T02:47:49;3.85;;;3.00;;
18574;SDS011;9417;16.484;102.872;2023-09-12T02:49:57;5.03;;;3.30;;
18574;SDS011;9417;16.484;102.872;2023-09-12T02:52:05;3.78;;;3.40;;
18574;SDS011;9417;16.484;102.872;2023-09-12T02:54:13;4.95;;;3.72;;
18574;SDS011;9417;16.484;102.872;2023-09-12T02:56:20;6.10;;;3.92;;
18574;SDS011;9417;16.484;102.872;2023-09-12T02:58:27;5.93;;;3.90;;
18574;SDS011;9417;16.484;102.872;2023-09-12T03:00:37;6.72;;;3.95;;
18574;SDS011;9417;16.484;102.872;2023-09-12T03:02:45;5.00;;;3.70;;
18574;SDS011;9417;16.484;102.872;2023-09-12T03:04:52;6.50;;;3.60;;
18574;SDS011;9417;16.484;102.872;2023-09-12T03:06:59;4.43;;;3.75;;
18574;SDS011;9417;16.484;102.872;2023-09-12T03:09:08;6.18;;;3.40;;
18574;SDS011;9417;16.484;102.872;2023-09-12T03:11:16;4.70;;;3.50;;
18574;SDS011;9417;16.484;102.872;2023-09-12T03:13:23;5.38;;;3.60;;
18574;SDS011;9417;16.484;102.872;2023-09-12T03:15:35;6.20;;;4.32;;
18574;SDS011;9417;16.484;102.872;2023-09-12T03:17:43;7.72;;;4.03;;
18574;SDS011;9417;16.484;102.872;2023-09-12T03:19:50;5.68;;;4.65;;
18574;SDS011;9417;16.484;102.872;2023-09-12T03:21:58;5.95;;;2.63;;
18574;SDS011;9417;16.484;102.872;2023-09-12T03:24:05;4.43;;;2.58;;
18574;SDS011;9417;16.484;102.872;2023-09-12T03:26:14;4.75;;;2.88;;
18574;SDS011;9417;16.484;102.872;2023-09-12T03:28:21;4.63;;;2.45;;
18574;SDS011;9417;16.484;102.872;2023-09-12T03:30:29;6.72;;;3.20;;
18574;SDS011;9417;16.484;102.872;2023-09-12T03:32:37;4.18;;;2.78;;
18574;SDS011;9417;16.484;102.872;2023-09-12T03:34:44;6.20;;;2.70;;
18574;SDS011;9417;16.484;102.872;2023-09-12T03:36:53;4.75;;;2.58;;
18574;SDS011;9417;16.484;102.872;2023-09-12T03:39:00;4.90;;;2.63;;
18574;SDS011;9417;16.484;102.872;2023-09-12T03:41:11;17.35;;;16.15;;
18574;SDS011;9417;16.484;102.872;2023-09-12T03:43:18;17.10;;;15.63;;
18574;SDS011;9417;16.484;102.872;2023-09-12T03:45:25;16.10;;;15.15;;
18574;SDS011;9417;16.484;102.872;2023-09-12T03:47:32;3.25;;;2.40;;
18574;SDS011;9417;16.484;102.872;2023-09-12T03:49:40;15.57;;;14.43;;
18574;SDS011;9417;16.484;102.872;2023-09-12T03:51:47;6.95;;;6.25;;
18574;SDS011;9417;16.484;102.872;2023-09-12T03:53:54;5.57;;;2.72;;
18574;SDS011;9417;16.484;102.872;2023-09-12T03:56:00;6.88;;;2.90;;
18574;SDS011;9417;16.484;102.872;2023-09-12T03:58:08;3.75;;;2.53;;
18574;SDS011;9417;16.484;102.872;2023-09-12T04:00:15;5.47;;;2.88;;
18574;SDS011;9417;16.484;102.872;2023-09-12T04:02:24;4.20;;;2.13;;
18574;SDS011;9417;16.484;102.872;2023-09-12T04:04:31;7.82;;;2.95;;
18574;SDS011;9417;16.484;102.872;2023-09-12T04:06:38;8.10;;;3.67;;
18574;SDS011;9417;16.484;102.872;2023-09-12T04:08:46;4.55;;;3.90;;
18574;SDS011;9417;16.484;102.872;2023-09-12T04:10:53;5.47;;;3.72;;
18574;SDS011;9417;16.484;102.872;2023-09-12T04:13:00;7.75;;;3.60;;
18574;SDS011;9417;16.484;102.872;2023-09-12T04:15:09;4.30;;;3.53;;
18574;SDS011;9417;16.484;102.872;2023-09-12T04:17:17;6.10;;;3.30;;
18574;SDS011;9417;16.484;102.872;2023-09-12T04:19:24;5.35;;;3.90;;
18574;SDS011;9417;16.484;102.872;2023-09-12T04:21:31;3.97;;;3.45;;
18574;SDS011;9417;16.484;102.872;2023-09-12T04:23:39;5.22;;;3.97;;
18574;SDS011;9417;16.484;102.872;2023-09-12T04:25:46;6.38;;;3.78;;
18574;SDS011;9417;16.484;102.872;2023-09-12T04:27:53;4.95;;;3.85;;
18574;SDS011;9417;16.484;102.872;2023-09-12T04:30:01;6.78;;;4.22;;
18574;SDS011;9417;16.484;102.872;2023-09-12T04:32:10;5.40;;;4.50;;
18574;SDS011;9417;16.484;102.872;2023-09-12T04:34:18;4.93;;;4.43;;
18574;SDS011;9417;16.484;102.872;2023-09-12T04:36:25;5.10;;;4.60;;
18574;SDS011;9417;16.484;102.872;2023-09-12T04:38:32;6.20;;;4.50;;
18574;SDS011;9417;16.484;102.872;2023-09-12T04:40:41;5.60;;;4.80;;
18574;SDS011;9417;16.484;102.872;2023-09-12T04:42:48;5.88;;;5.00;;
18574;SDS011;9417;16.484;102.872;2023-09-12T04:44:55;5.93;;;5.25;;
18574;SDS011;9417;16.484;102.872;2023-09-12T04:47:03;5.07;;;4.57;;
18574;SDS011;9417;16.484;102.872;2023-09-12T04:49:13;5.13;;;4.55;;
18574;SDS011;9417;16.484;102.872;2023-09-12T04:51:21;4.72;;;3.67;;
18574;SDS011;9417;16.484;102.872;2023-09-12T04:53:28;7.05;;;4.00;;
18574;SDS011;9417;16.484;102.872;2023-09-12T04:55:39;5.55;;;3.88;;
18574;SDS011;9417;16.484;102.872;2023-09-12T04:57:46;4.97;;;4.05;;
18574;SDS011;9417;16.484;102.872;2023-09-12T04:59:54;5.30;;;4.32;;
18574;SDS011;9417;16.484;102.872;2023-09-12T05:02:01;5.82;;;3.80;;
18574;SDS011;9417;16.484;102.872;2023-09-12T05:04:08;6.30;;;3.63;;
18574;SDS011;9417;16.484;102.872;2023-09-12T05:06:17;5.18;;;4.45;;
18574;SDS011;9417;16.484;102.872;2023-09-12T05:08:24;5.32;;;3.50;;
18574;SDS011;9417;16.484;102.872;2023-09-12T05:10:32;6.68;;;3.65;;
18574;SDS011;9417;16.484;102.872;2023-09-12T05:12:40;4.45;;;3.55;;
18574;SDS011;9417;16.484;102.872;2023-09-12T05:14:47;5.45;;;3.10;;
18574;SDS011;9417;16.484;102.872;2023-09-12T05:16:54;5.20;;;3.50;;
18574;SDS011;9417;16.484;102.872;2023-09-12T05:19:01;4.88;;;3.50;;
18574;SDS011;9417;16.484;102.872;2023-09-12T05:21:09;3.78;;;3.13;;
18574;SDS011;9417;16.484;102.872;2023-09-12T05:23:19;3.78;;;2.50;;
18574;SDS011;9417;16.484;102.872;2023-09-12T05:25:26;4.47;;;2.38;;
18574;SDS011;9417;16.484;102.872;2023-09-12T05:27:33;3.97;;;2.28;;
18574;SDS011;9417;16.484;102.872;2023-09-12T05:29:40;4.20;;;2.85;;
18574;SDS011;9417;16.484;102.872;2023-09-12T05:31:48;3.47;;;2.40;;
18574;SDS011;9417;16.484;102.872;2023-09-12T05:33:55;4.47;;;2.53;;
18574;SDS011;9417;16.484;102.872;2023-09-12T05:36:02;6.07;;;2.90;;
18574;SDS011;9417;16.484;102.872;2023-09-12T05:38:10;3.58;;;2.45;;
18574;SDS011;9417;16.484;102.872;2023-09-12T05:40:18;3.28;;;2.70;;
18574;SDS011;9417;16.484;102.872;2023-09-12T05:42:26;4.57;;;2.75;;
18574;SDS011;9417;16.484;102.872;2023-09-12T05:44:33;4.63;;;3.40;;
18574;SDS011;9417;16.484;102.872;2023-09-12T05:46:39;6.43;;;4.80;;
18574;SDS011;9417;16.484;102.872;2023-09-12T05:48:46;5.55;;;4.18;;
18574;SDS011;9417;16.484;102.872;2023-09-12T05:50:53;4.85;;;4.40;;
18574;SDS011;9417;16.484;102.872;2023-09-12T05:53:00;4.90;;;4.10;;
18574;SDS011;9417;16.484;102.872;2023-09-12T05:55:08;5.40;;;3.72;;
18574;SDS011;9417;16.484;102.872;2023-09-12T05:57:17;5.38;;;3.10;;
18574;SDS011;9417;16.484;102.872;2023-09-12T05:59:25;3.75;;;3.22;;
18574;SDS011;9417;16.484;102.872;2023-09-12T06:01:32;3.38;;;2.97;;
18574;SDS011;9417;16.484;102.872;2023-09-12T06:03:39;4.53;;;4.10;;
18574;SDS011;9417;16.484;102.872;2023-09-12T06:05:47;3.95;;;3.03;;
18574;SDS011;9417;16.484;102.872;2023-09-12T06:07:54;3.33;;;2.55;;
18574;SDS011;9417;16.484;102.872;2023-09-12T06:10:02;2.75;;;2.20;;
18574;SDS011;9417;16.484;102.872;2023-09-12T06:12:09;4.13;;;2.65;;
18574;SDS011;9417;16.484;102.872;2023-09-12T06:14:18;4.63;;;3.70;;
18574;SDS011;9417;16.484;102.872;2023-09-12T06:16:25;4.65;;;3.47;;
18574;SDS011;9417;16.484;102.872;2023-09-12T06:18:33;4.35;;;3.55;;
18574;SDS011;9417;16.484;102.872;2023-09-12T06:20:40;4.40;;;3.00;;
18574;SDS011;9417;16.484;102.872;2023-09-12T06:22:47;6.25;;;4.13;;
18574;SDS011;9417;16.484;102.872;2023-09-12T06:24:54;4.90;;;3.30;;
18574;SDS011;9417;16.484;102.872;2023-09-12T06:27:00;5.15;;;2.75;;
18574;SDS011;9417;16.484;102.872;2023-09-12T06:29:07;6.07;;;2.88;;
18574;SDS011;9417;16.484;102.872;2023-09-12T06:31:16;5.22;;;3.15;;
18574;SDS011;9417;16.484;102.872;2023-09-12T06:33:24;3.95;;;2.67;;
18574;SDS011;9417;16.484;102.872;2023-09-12T06:35:32;5.25;;;2.92;;
18574;SDS011;9417;16.484;102.872;2023-09-12T06:37:44;4.40;;;2.70;;
18574;SDS011;9417;16.484;102.872;2023-09-12T06:39:51;5.28;;;2.90;;
18574;SDS011;9417;16.484;102.872;2023-09-12T06:41:58;3.67;;;2.78;;
18574;SDS011;9417;16.484;102.872;2023-09-12T06:44:05;5.07;;;3.10;;
18574;SDS011;9417;16.484;102.872;2023-09-12T06:46:12;6.50;;;3.53;;
18574;SDS011;9417;16.484;102.872;2023-09-12T06:48:22;6.57;;;3.85;;
18574;SDS011;9417;16.484;102.872;2023-09-12T06:50:30;5.53;;;5.03;;
18574;SDS011;9417;16.484;102.872;2023-09-12T06:52:37;5.93;;;5.43;;
18574;SDS011;9417;16.484;102.872;2023-09-12T06:54:44;5.10;;;3.05;;
18574;SDS011;9417;16.484;102.872;2023-09-12T06:56:51;4.55;;;3.30;;
18574;SDS011;9417;16.484;102.872;2023-09-12T06:58:59;3.53;;;3.10;;
18574;SDS011;9417;16.484;102.872;2023-09-12T07:01:06;5.03;;;4.03;;
18574;SDS011;9417;16.484;102.872;2023-09-12T07:03:14;5.80;;;5.18;;
18574;SDS011;9417;16.484;102.872;2023-09-12T07:05:23;6.85;;;5.80;;
18574;SDS011;9417;16.484;102.872;2023-09-12T07:07:30;6.15;;;5.45;;
18574;SDS011;9417;16.484;102.872;2023-09-12T07:09:37;7.88;;;5.82;;
18574;SDS011;9417;16.484;102.872;2023-09-12T07:11:44;5.43;;;4.05;;
18574;SDS011;9417;16.484;102.872;2023-09-12T07:13:53;5.35;;;3.25;;
18574;SDS011;9417;16.484;102.872;2023-09-12T07:16:00;5.03;;;3.40;;
18574;SDS011;9417;16.484;102.872;2023-09-12T07:18:08;7.70;;;3.92;;
18574;SDS011;9417;16.484;102.872;2023-09-12T07:20:15;3.97;;;3.40;;
18574;SDS011;9417;16.484;102.872;2023-09-12T07:22:25;3.97;;;3.00;;
18574;SDS011;9417;16.484;102.872;2023-09-12T07:24:32;4.03;;;3.50;;
18574;SDS011;9417;16.484;102.872;2023-09-12T07:26:39;3.65;;;3.25;;
18574;SDS011;9417;16.484;102.872;2023-09-12T07:28:47;5.75;;;3.50;;
18574;SDS011;9417;16.484;102.872;2023-09-12T07:30:54;3.55;;;3.17;;
18574;SDS011;9417;16.484;102.872;2023-09-12T07:33:02;5.35;;;3.47;;
18574;SDS011;9417;16.484;102.872;2023-09-12T07:35:10;4.22;;;3.45;;
18574;SDS011;9417;16.484;102.872;2023-09-12T07:37:16;6.43;;;4.00;;
18574;SDS011;9417;16.484;102.872;2023-09-12T07:39:25;4.30;;;3.78;;
18574;SDS011;9417;16.484;102.872;2023-09-12T07:41:32;3.80;;;3.05;;
18574;SDS011;9417;16.484;102.872;2023-09-12T07:43:40;4.35;;;3.35;;
18574;SDS011;9417;16.484;102.872;2023-09-12T07:45:46;5.40;;;4.35;;
18574;SDS011;9417;16.484;102.872;2023-09-12T07:47:53;9.68;;;4.95;;
18574;SDS011;9417;16.484;102.872;2023-09-12T07:50:00;4.97;;;4.45;;
18574;SDS011;9417;16.484;102.872;2023-09-12T07:52:08;5.78;;;3.90;;
18574;SDS011;9417;16.484;102.872;2023-09-12T07:54:13;5.47;;;4.93;;
18574;SDS011;9417;16.484;102.872;2023-09-12T07:56:23;5.10;;;4.63;;
18574;SDS011;9417;16.484;102.872;2023-09-12T07:58:30;7.20;;;5.00;;
18574;SDS011;9417;16.484;102.872;2023-09-12T08:00:38;5.47;;;4.88;;
18574;SDS011;9417;16.484;102.872;2023-09-12T08:02:45;8.52;;;4.53;;
18574;SDS011;9417;16.484;102.872;2023-09-12T08:04:53;5.85;;;4.63;;
18574;SDS011;9417;16.484;102.872;2023-09-12T08:06:59;5.72;;;5.07;;
18574;SDS011;9417;16.484;102.872;2023-09-12T08:09:07;7.93;;;4.93;;
18574;SDS011;9417;16.484;102.872;2023-09-12T08:11:15;6.32;;;4.95;;
18574;SDS011;9417;16.484;102.872;2023-09-12T08:13:25;7.38;;;4.28;;
18574;SDS011;9417;16.484;102.872;2023-09-12T08:15:33;5.57;;;4.13;;
18574;SDS011;9417;16.484;102.872;2023-09-12T08:17:40;4.35;;;3.90;;
18574;SDS011;9417;16.484;102.872;2023-09-12T08:19:47;5.13;;;3.70;;
18574;SDS011;9417;16.484;102.872;2023-09-12T08:21:54;4.78;;;3.50;;
18574;SDS011;9417;16.484;102.872;2023-09-12T08:24:01;5.88;;;3.50;;
18574;SDS011;9417;16.484;102.872;2023-09-12T08:26:08;4.25;;;3.10;;
18574;SDS011;9417;16.484;102.872;2023-09-12T08:28:16;5.13;;;3.33;;
18574;SDS011;9417;16.484;102.872;2023-09-12T08:30:23;6.57;;;5.00;;
18574;SDS011;9417;16.484;102.872;2023-09-12T08:32:31;6.80;;;4.60;;
18574;SDS011;9417;16.484;102.872;2023-09-12T08:34:39;5.72;;;3.33;;
18574;SDS011;9417;16.484;102.872;2023-09-12T08:36:45;4.38;;;3.47;;
18574;SDS011;9417;16.484;102.872;2023-09-12T08:38:53;4.05;;;2.83;;
18574;SDS011;9417;16.484;102.872;2023-09-12T08:41:00;5.93;;;3.35;;
18574;SDS011;9417;16.484;102.872;2023-09-12T08:43:07;4.50;;;3.47;;
18574;SDS011;9417;16.484;102.872;2023-09-12T08:45:14;5.50;;;3.30;;
18574;SDS011;9417;16.484;102.872;2023-09-12T08:47:24;6.22;;;3.42;;
18574;SDS011;9417;16.484;102.872;2023-09-12T08:49:32;3.35;;;2.83;;
18574;SDS011;9417;16.484;102.872;2023-09-12T08:51:41;7.13;;;6.45;;
18574;SDS011;9417;16.484;102.872;2023-09-12T08:53:48;6.72;;;3.40;;
18574;SDS011;9417;16.484;102.872;2023-09-12T08:55:55;7.85;;;6.97;;
18574;SDS011;9417;16.484;102.872;2023-09-12T08:58:04;6.88;;;5.90;;
18574;SDS011;9417;16.484;102.872;2023-09-12T09:00:12;6.40;;;5.78;;
18574;SDS011;9417;16.484;102.872;2023-09-12T09:02:19;5.90;;;3.45;;
18574;SDS011;9417;16.484;102.872;2023-09-12T09:04:30;4.18;;;3.45;;
18574;SDS011;9417;16.484;102.872;2023-09-12T09:06:38;6.35;;;3.83;;
18574;SDS011;9417;16.484;102.872;2023-09-12T09:08:46;5.35;;;3.58;;
18574;SDS011;9417;16.484;102.872;2023-09-12T09:10:55;4.57;;;2.97;;
18574;SDS011;9417;16.484;102.872;2023-09-12T09:13:05;5.53;;;3.20;;
18574;SDS011;9417;16.484;102.872;2023-09-12T09:15:20;5.90;;;3.33;;
18574;SDS011;9417;16.484;102.872;2023-09-12T09:17:28;4.05;;;3.33;;
18574;SDS011;9417;16.484;102.872;2023-09-12T09:19:43;4.57;;;3.70;;
18574;SDS011;9417;16.484;102.872;2023-09-12T09:21:51;5.22;;;3.75;;
18574;SDS011;9417;16.484;102.872;2023-09-12T09:24:11;6.38;;;3.60;;
18574;SDS011;9417;16.484;102.872;2023-09-12T09:26:18;5.45;;;3.47;;
18574;SDS011;9417;16.484;102.872;2023-09-12T09:28:26;3.92;;;3.25;;
18574;SDS011;9417;16.484;102.872;2023-09-12T09:30:40;4.75;;;3.10;;
18574;SDS011;9417;16.484;102.872;2023-09-12T09:32:48;7.80;;;3.47;;
18574;SDS011;9417;16.484;102.872;2023-09-12T09:35:02;5.18;;;3.55;;
18574;SDS011;9417;16.484;102.872;2023-09-12T09:37:10;8.77;;;4.25;;
18574;SDS011;9417;16.484;102.872;2023-09-12T09:39:19;5.25;;;3.50;;
18574;SDS011;9417;16.484;102.872;2023-09-12T09:41:28;5.82;;;3.40;;
18574;SDS011;9417;16.484;102.872;2023-09-12T09:43:37;3.67;;;3.33;;
18574;SDS011;9417;16.484;102.872;2023-09-12T09:45:44;6.15;;;4.38;;
18574;SDS011;9417;16.484;102.872;2023-09-12T09:47:52;4.72;;;3.50;;
18574;SDS011;9417;16.484;102.872;2023-09-12T09:50:10;4.18;;;3.50;;
18574;SDS011;9417;16.484;102.872;2023-09-12T09:52:25;4.68;;;3.63;;
18574;SDS011;9417;16.484;102.872;2023-09-12T09:54:32;4.93;;;3.83;;
18574;SDS011;9417;16.484;102.872;2023-09-12T09:56:46;8.00;;;7.30;;
18574;SDS011;9417;16.484;102.872;2023-09-12T09:58:53;5.75;;;3.58;;
18574;SDS011;9417;16.484;102.872;2023-09-12T10:01:01;5.90;;;4.57;;
18574;SDS011;9417;16.484;102.872;2023-09-12T10:03:11;6.50;;;4.60;;
18574;SDS011;9417;16.484;102.872;2023-09-12T10:05:23;6.13;;;3.95;;
18574;SDS011;9417;16.484;102.872;2023-09-12T10:07:31;7.00;;;4.60;;
18574;SDS011;9417;16.484;102.872;2023-09-12T10:09:40;7.22;;;4.97;;
18574;SDS011;9417;16.484;102.872;2023-09-12T10:11:49;5.22;;;3.90;;
18574;SDS011;9417;16.484;102.872;2023-09-12T10:13:59;8.48;;;4.50;;
18574;SDS011;9417;16.484;102.872;2023-09-12T10:16:09;8.32;;;4.30;;
18574;SDS011;9417;16.484;102.872;2023-09-12T10:18:18;6.93;;;3.88;;
18574;SDS011;9417;16.484;102.872;2023-09-12T10:20:35;6.07;;;3.80;;
18574;SDS011;9417;16.484;102.872;2023-09-12T10:22:48;5.38;;;3.85;;
18574;SDS011;9417;16.484;102.872;2023-09-12T10:25:01;5.88;;;3.80;;
18574;SDS011;9417;16.484;102.872;2023-09-12T10:27:10;7.93;;;4.10;;
18574;SDS011;9417;16.484;102.872;2023-09-12T10:29:18;7.07;;;4.03;;
18574;SDS011;9417;16.484;102.872;2023-09-12T10:31:26;8.07;;;4.22;;
18574;SDS011;9417;16.484;102.872;2023-09-12T10:33:33;7.75;;;4.30;;
18574;SDS011;9417;16.484;102.872;2023-09-12T10:35:42;8.73;;;4.07;;
18574;SDS011;9417;16.484;102.872;2023-09-12T10:37:52;6.53;;;4.50;;
18574;SDS011;9417;16.484;102.872;2023-09-12T10:40:01;6.80;;;4.10;;
18574;SDS011;9417;16.484;102.872;2023-09-12T10:42:11;6.80;;;3.58;;
18574;SDS011;9417;16.484;102.872;2023-09-12T10:44:19;7.15;;;4.10;;
18574;SDS011;9417;16.484;102.872;2023-09-12T10:46:27;5.45;;;3.80;;
18574;SDS011;9417;16.484;102.872;2023-09-12T10:48:34;8.07;;;4.50;;
18574;SDS011;9417;16.484;102.872;2023-09-12T10:50:45;9.63;;;4.55;;
18574;SDS011;9417;16.484;102.872;2023-09-12T10:52:53;4.35;;;3.42;;
18574;SDS011;9417;16.484;102.872;2023-09-12T10:54:58;4.45;;;3.30;;
18574;SDS011;9417;16.484;102.872;2023-09-12T10:57:10;5.25;;;3.45;;
18574;SDS011;9417;16.484;102.872;2023-09-12T10:59:17;8.80;;;4.00;;
18574;SDS011;9417;16.484;102.872;2023-09-12T11:01:29;4.88;;;3.75;;
18574;SDS011;9417;16.484;102.872;2023-09-12T11:03:37;6.57;;;3.75;;
18574;SDS011;9417;16.484;102.872;2023-09-12T11:05:53;9.43;;;4.53;;
18574;SDS011;9417;16.484;102.872;2023-09-12T11:08:01;6.55;;;4.13;;
18574;SDS011;9417;16.484;102.872;2023-09-12T11:10:17;6.00;;;3.60;;
18574;SDS011;9417;16.484;102.872;2023-09-12T11:12:33;7.82;;;4.22;;
18574;SDS011;9417;16.484;102.872;2023-09-12T11:17:23;8.88;;;3.90;;
18574;SDS011;9417;16.484;102.872;2023-09-12T11:19:30;6.57;;;4.18;;
18574;SDS011;9417;16.484;102.872;2023-09-12T11:21:53;6.45;;;3.80;;
18574;SDS011;9417;16.484;102.872;2023-09-12T11:24:01;9.85;;;4.75;;
18574;SDS011;9417;16.484;102.872;2023-09-12T11:26:08;7.65;;;3.90;;
18574;SDS011;9417;16.484;102.872;2023-09-12T11:28:17;5.45;;;3.75;;
18574;SDS011;9417;16.484;102.872;2023-09-12T11:30:26;5.40;;;3.53;;
18574;SDS011;9417;16.484;102.872;2023-09-12T11:32:35;7.75;;;3.58;;
18574;SDS011;9417;16.484;102.872;2023-09-12T11:34:43;7.22;;;3.88;;
18574;SDS011;9417;16.484;102.872;2023-09-12T11:36:50;7.65;;;3.80;;
18574;SDS011;9417;16.484;102.872;2023-09-12T11:39:03;7.78;;;4.15;;
18574;SDS011;9417;16.484;102.872;2023-09-12T11:41:39;10.15;;;4.65;;
18574;SDS011;9417;16.484;102.872;2023-09-12T11:43:46;6.53;;;4.22;;
18574;SDS011;9417;16.484;102.872;2023-09-12T11:45:54;6.25;;;3.75;;
18574;SDS011;9417;16.484;102.872;2023-09-12T11:48:02;9.15;;;4.18;;
18574;SDS011;9417;16.484;102.872;2023-09-12T11:50:25;6.03;;;4.30;;
18574;SDS011;9417;16.484;102.872;2023-09-12T11:52:37;9.43;;;4.60;;
18574;SDS011;9417;16.484;102.872;2023-09-12T11:54:44;13.05;;;6.45;;
18574;SDS011;9417;16.484;102.872;2023-09-12T11:56:51;15.25;;;9.48;;
18574;SDS011;9417;16.484;102.872;2023-09-12T11:59:00;12.65;;;7.25;;
18574;SDS011;9417;16.484;102.872;2023-09-12T12:01:07;13.32;;;7.30;;
18574;SDS011;9417;16.484;102.872;2023-09-12T12:03:19;21.92;;;10.52;;
18574;SDS011;9417;16.484;102.872;2023-09-12T12:05:27;17.23;;;7.53;;
18574;SDS011;9417;16.484;102.872;2023-09-12T12:07:37;36.50;;;17.83;;
18574;SDS011;9417;16.484;102.872;2023-09-12T12:09:46;34.55;;;16.67;;
18574;SDS011;9417;16.484;102.872;2023-09-12T12:11:53;33.20;;;16.80;;
18574;SDS011;9417;16.484;102.872;2023-09-12T12:14:10;26.02;;;13.15;;
18574;SDS011;9417;16.484;102.872;2023-09-12T12:16:19;10.63;;;6.57;;
18574;SDS011;9417;16.484;102.872;2023-09-12T12:18:29;6.15;;;3.60;;
18574;SDS011;9417;16.484;102.872;2023-09-12T12:20:36;5.85;;;3.42;;
18574;SDS011;9417;16.484;102.872;2023-09-12T12:22:43;5.93;;;4.05;;
18574;SDS011;9417;16.484;102.872;2023-09-12T12:24:50;4.85;;;3.70;;
18574;SDS011;9417;16.484;102.872;2023-09-12T12:27:00;6.88;;;3.60;;
18574;SDS011;9417;16.484;102.872;2023-09-12T12:29:09;6.25;;;4.00;;
18574;SDS011;9417;16.484;102.872;2023-09-12T12:31:17;8.77;;;3.50;;
18574;SDS011;9417;16.484;102.872;2023-09-12T12:33:28;6.03;;;3.50;;
18574;SDS011;9417;16.484;102.872;2023-09-12T12:35:59;5.28;;;3.80;;
18574;SDS011;9417;16.484;102.872;2023-09-12T12:38:09;6.32;;;3.78;;
18574;SDS011;9417;16.484;102.872;2023-09-12T12:40:19;4.68;;;3.60;;
18574;SDS011;9417;16.484;102.872;2023-09-12T12:42:33;5.32;;;3.42;;
18574;SDS011;9417;16.484;102.872;2023-09-12T12:44:55;4.32;;;3.10;;
18574;SDS011;9417;16.484;102.872;2023-09-12T12:47:03;5.53;;;3.33;;